Prairie Center, Illinois
Current Conditions -  °F | °C
As of 4:55 AM on Friday 19 Dec 2014 (Local Time) from KVYS Reporting Station
Broken Clouds Broken Clouds  
Wind Chill: 20°   Ceiling: 1800
Heat Index: 20°   Visibility: 7mi
Dew Point: 17°   Wind: 3mph
Humidity: 89%   Direction: 260°W
Pressure: 30.29"   Gusts: NA
Location:  41.4349°N, 88.8687°W
Report Text: KVYS 191055Z AUTO 26003KT 7SM BKN018 M07/M08 A3029 RMK AO2 T10661081
Loading
Personal Weather Stations






























Interactive Weather Map New forecast layout! Learn more

10-Day Weather Forecast

Advertisements
Track Severe Weather on mobile